createdAt,value
2023-01-19T00:00:56.879Z,12.37
2023-01-19T00:06:05.887Z,12.20
2023-01-19T00:11:08.566Z,12.10
2023-01-19T00:16:11.499Z,11.77
2023-01-19T00:21:15.774Z,11.40
2023-01-19T00:26:18.837Z,10.90
2023-01-19T00:31:21.793Z,12.07
2023-01-19T00:36:25.987Z,12.40
2023-01-19T00:41:42.684Z,11.63
2023-01-19T00:46:45.336Z,12.50
2023-01-19T00:51:49.413Z,12.00
2023-01-19T00:56:52.108Z,12.57
2023-01-19T01:01:54.973Z,13.03
2023-01-19T01:06:59.116Z,13.30
2023-01-19T01:12:01.758Z,11.70
2023-01-19T01:17:04.463Z,12.47
2023-01-19T01:22:09.407Z,12.27
2023-01-19T01:27:12.162Z,11.87
2023-01-19T01:32:14.935Z,12.27
2023-01-19T01:37:18.887Z,11.87
2023-01-19T01:42:27.459Z,11.73
2023-01-19T01:47:33.921Z,11.30
2023-01-19T01:52:44.559Z,11.10
2023-01-19T01:58:08.618Z,11.43
2023-01-19T02:03:11.505Z,11.30
2023-01-19T02:08:37.592Z,11.67
2023-01-19T02:13:43.806Z,10.67
2023-01-19T02:18:47.267Z,10.33
2023-01-19T02:23:53.279Z,10.50
2023-01-19T02:28:59.130Z,11.43
2023-01-19T02:34:03.421Z,11.07
2023-01-19T02:39:09.433Z,10.30
2023-01-19T02:44:13.501Z,10.93
2023-01-19T02:49:16.280Z,10.77
2023-01-19T02:54:32.793Z,11.00
2023-01-19T02:59:48.880Z,11.23
2023-01-19T03:05:01.149Z,10.37
2023-01-19T03:10:08.989Z,10.83
2023-01-19T03:15:19.812Z,10.07
2023-01-19T03:20:25.481Z,10.60
2023-01-19T03:25:32.894Z,11.10
2023-01-19T03:30:40.136Z,10.93
2023-01-19T03:35:47.079Z,11.07
2023-01-19T03:40:53.324Z,12.77
2023-01-19T03:45:57.686Z,11.40
2023-01-19T03:51:04.294Z,12.03
2023-01-19T03:56:15.815Z,10.83
2023-01-19T04:01:22.730Z,10.77
2023-01-19T04:06:25.656Z,11.87
2023-01-19T04:11:30.450Z,10.57
2023-01-19T04:16:33.255Z,10.13
2023-01-19T04:21:35.978Z,9.77
2023-01-19T04:26:39.981Z,9.53
2023-01-19T04:31:45.592Z,9.63
2023-01-19T04:36:51.026Z,9.37
2023-01-19T04:41:56.239Z,9.47
2023-01-19T04:46:58.871Z,9.10
2023-01-19T04:52:01.914Z,9.73
2023-01-19T04:57:05.965Z,8.80
2023-01-19T05:02:08.707Z,9.80
2023-01-19T05:07:11.388Z,13.27
2023-01-19T05:12:15.405Z,9.53
2023-01-19T05:17:18.050Z,10.10
2023-01-19T05:22:20.780Z,9.80
2023-01-19T05:27:24.845Z,9.50
2023-01-19T05:32:27.485Z,10.10
2023-01-19T05:37:31.700Z,9.13
2023-01-19T05:42:35.719Z,10.43
2023-01-19T05:47:39.834Z,9.50
2023-01-19T05:52:43.820Z,9.53
2023-01-19T05:57:47.836Z,8.97
2023-01-19T06:02:50.683Z,9.17
2023-01-19T06:07:53.523Z,9.30
2023-01-19T06:12:57.490Z,8.80
2023-01-19T06:18:00.187Z,8.77
2023-01-19T06:23:03.567Z,9.30
2023-01-19T06:28:07.683Z,8.77
2023-01-19T06:33:10.346Z,8.73
2023-01-19T06:38:14.376Z,8.50
2023-01-19T06:43:20.254Z,7.30
2023-01-19T06:48:23.341Z,6.87
2023-01-19T06:53:27.854Z,6.83
2023-01-19T06:58:32.101Z,5.90
2023-01-19T07:03:36.674Z,6.67
2023-01-19T07:08:39.957Z,6.90
2023-01-19T07:13:44.697Z,6.90
2023-01-19T07:18:49.937Z,6.40
2023-01-19T07:23:53.390Z,6.93
2023-01-19T07:28:57.365Z,6.30
2023-01-19T07:34:00.278Z,6.40
2023-01-19T07:39:02.939Z,6.40
2023-01-19T07:44:07.417Z,6.33
2023-01-19T07:49:10.707Z,5.40
2023-01-19T07:54:13.756Z,5.20
2023-01-19T07:59:17.706Z,4.87
2023-01-19T08:04:20.397Z,4.23
2023-01-19T08:09:24.312Z,4.30
2023-01-19T08:14:28.324Z,4.17
2023-01-19T08:19:31.263Z,4.90
2023-01-19T08:24:33.901Z,4.97
2023-01-19T08:29:38.285Z,4.50
2023-01-19T08:34:41.925Z,4.67
2023-01-19T08:39:44.543Z,4.70
2023-01-19T08:44:57.511Z,3.90
2023-01-19T08:50:00.617Z,4.10
2023-01-19T08:55:03.309Z,4.60
2023-01-19T09:00:11.012Z,5.20
2023-01-19T09:05:13.743Z,4.20
2023-01-19T09:10:17.369Z,4.53
2023-01-19T09:15:21.327Z,3.92
2023-01-19T09:20:24.098Z,4.00
2023-01-19T09:25:27.300Z,3.33
2023-01-19T09:30:32.560Z,3.80
2023-01-19T09:35:36.242Z,4.00
2023-01-19T09:40:44.022Z,3.00
2023-01-19T09:45:52.257Z,2.97
2023-01-19T09:50:57.298Z,3.28
2023-01-19T09:56:00.155Z,3.90
2023-01-19T10:01:13.849Z,4.47
2023-01-19T10:07:04.399Z,3.63
2023-01-19T10:12:18.442Z,4.50
2023-01-19T10:17:36.171Z,3.80
2023-01-19T10:22:39.044Z,3.90
2023-01-19T10:27:42.962Z,4.00
2023-01-19T10:32:46.942Z,3.30
2023-01-19T10:37:50.180Z,3.55
2023-01-19T10:42:53.034Z,3.38
2023-01-19T10:48:00.168Z,3.33
2023-01-19T10:53:05.771Z,3.55
2023-01-19T10:58:28.271Z,4.00
2023-01-19T11:03:33.201Z,3.60
2023-01-19T11:08:35.903Z,3.50
2023-01-19T11:13:39.451Z,4.00
2023-01-19T11:18:45.552Z,4.22
2023-01-19T11:23:51.029Z,3.90
2023-01-19T11:28:56.041Z,4.07
2023-01-19T11:34:01.568Z,3.80
2023-01-19T11:39:23.572Z,3.83
2023-01-19T11:44:31.120Z,3.72
2023-01-19T11:49:45.153Z,3.70
2023-01-19T11:54:54.607Z,4.07
2023-01-19T12:00:03.323Z,3.83
2023-01-19T12:05:13.920Z,3.77
2023-01-19T12:10:25.175Z,4.03
2023-01-19T12:15:33.904Z,4.23
2023-01-19T12:20:41.194Z,3.57
2023-01-19T12:25:54.979Z,3.30
2023-01-19T12:30:59.349Z,3.37
2023-01-19T12:36:06.466Z,3.00
2023-01-19T12:41:30.461Z,3.05
2023-01-19T12:46:33.244Z,2.90
2023-01-19T12:51:37.440Z,2.45
2023-01-19T12:56:40.151Z,2.37
2023-01-19T13:01:43.021Z,2.33
2023-01-19T13:07:13.544Z,2.10
2023-01-19T13:12:26.064Z,2.23
2023-01-19T13:17:34.063Z,2.17
2023-01-19T13:23:16.122Z,2.05
2023-01-19T13:28:20.843Z,2.35
2023-01-19T13:33:25.646Z,2.88
2023-01-19T13:38:32.884Z,2.35
2023-01-19T13:43:38.283Z,2.40
2023-01-19T13:48:41.558Z,2.20
2023-01-19T13:53:55.694Z,2.90
2023-01-19T13:59:11.871Z,2.67
2023-01-19T14:04:26.675Z,2.73
2023-01-19T14:09:30.805Z,3.13
2023-01-19T14:14:33.649Z,2.80
2023-01-19T14:19:49.585Z,2.43
2023-01-19T14:24:53.663Z,2.50
2023-01-19T14:30:19.836Z,2.17
2023-01-19T14:35:25.795Z,3.23
2023-01-19T14:40:31.343Z,2.97
2023-01-19T14:45:37.879Z,2.70
2023-01-19T14:50:57.553Z,3.20
2023-01-19T14:56:07.597Z,3.27
2023-01-19T15:01:10.462Z,3.10
2023-01-19T15:06:15.825Z,3.20
2023-01-19T15:11:23.791Z,3.40
2023-01-19T15:16:28.596Z,3.57
2023-01-19T15:21:31.483Z,4.00
2023-01-19T15:26:36.564Z,3.97
2023-01-19T15:31:39.328Z,4.00
2023-01-19T15:36:42.596Z,3.90
2023-01-19T15:41:46.784Z,4.40
2023-01-19T15:46:49.798Z,4.07
2023-01-19T15:51:52.728Z,3.60
2023-01-19T15:56:56.733Z,3.80
2023-01-19T16:01:59.606Z,4.20
2023-01-19T16:07:02.406Z,4.13
2023-01-19T16:12:06.848Z,4.13
2023-01-19T16:17:09.489Z,4.30
2023-01-19T16:22:12.415Z,4.07
2023-01-19T16:27:16.382Z,4.23
2023-01-19T16:32:19.519Z,4.33
2023-01-19T16:37:22.192Z,3.57
2023-01-19T16:42:26.719Z,4.00
2023-01-19T16:47:29.371Z,4.43
2023-01-19T16:52:32.005Z,4.40
2023-01-19T16:57:36.281Z,4.63
2023-01-19T17:02:38.953Z,7.07
2023-01-19T17:08:29.715Z,4.37
2023-01-19T17:14:49.456Z,5.37
2023-01-19T17:20:02.055Z,7.57
2023-01-19T17:25:10.228Z,5.03
2023-01-19T17:30:30.097Z,4.70
2023-01-19T17:35:37.035Z,20.50
2023-01-19T17:40:39.957Z,4.87
2023-01-19T17:45:42.718Z,5.23
2023-01-19T17:50:46.937Z,5.00
2023-01-19T17:55:49.571Z,5.20
2023-01-19T18:00:52.208Z,7.37
2023-01-19T18:05:56.819Z,7.80
2023-01-19T18:11:01.548Z,8.87
2023-01-19T18:16:07.240Z,8.27
2023-01-19T18:21:16.461Z,9.47
2023-01-19T18:26:21.375Z,9.83
2023-01-19T18:31:24.806Z,9.53
2023-01-19T18:36:31.834Z,9.83
2023-01-19T18:41:36.991Z,9.87
2023-01-19T18:46:39.987Z,9.37
2023-01-19T18:51:44.098Z,8.43
2023-01-19T18:56:46.786Z,8.73
2023-01-19T19:01:49.539Z,9.77
2023-01-19T19:06:53.648Z,7.67
2023-01-19T19:11:56.355Z,7.67
2023-01-19T19:16:58.987Z,8.20
2023-01-19T19:22:03.984Z,7.77
2023-01-19T19:27:06.619Z,8.93
2023-01-19T19:32:09.244Z,8.30
2023-01-19T19:37:13.170Z,6.93
2023-01-19T19:42:16.277Z,7.90
2023-01-19T19:47:18.958Z,8.10
2023-01-19T19:52:23.039Z,7.47
2023-01-19T19:57:25.740Z,6.60
2023-01-19T20:02:28.535Z,5.50
2023-01-19T20:07:32.702Z,6.77
2023-01-19T20:12:35.379Z,5.43
2023-01-19T20:17:38.036Z,5.73
2023-01-19T20:22:42.047Z,5.50
2023-01-19T20:27:45.081Z,6.20
2023-01-19T20:32:47.808Z,5.87
2023-01-19T20:37:51.764Z,6.87
2023-01-19T20:42:54.604Z,6.03
2023-01-19T20:47:57.353Z,10.70
2023-01-19T20:53:01.317Z,6.03
2023-01-19T20:58:04.368Z,5.93
2023-01-19T21:03:07.242Z,6.27
2023-01-19T21:08:13.283Z,5.90
2023-01-19T21:13:15.906Z,5.90
2023-01-19T21:18:18.658Z,6.20
2023-01-19T21:23:22.605Z,7.00
2023-01-19T21:28:28.245Z,7.23
2023-01-19T21:33:33.019Z,7.53
2023-01-19T21:38:38.516Z,7.30
2023-01-19T21:43:43.087Z,7.67
2023-01-19T21:48:46.672Z,7.57
2023-01-19T21:53:52.275Z,8.10
2023-01-19T21:58:55.706Z,7.67
2023-01-19T22:03:59.273Z,7.60
2023-01-19T22:09:03.291Z,8.53
2023-01-19T22:14:05.991Z,9.23
2023-01-19T22:19:12.865Z,8.70
2023-01-19T22:24:16.852Z,7.97
2023-01-19T22:29:19.493Z,8.40
2023-01-19T22:34:22.118Z,8.87
2023-01-19T22:39:26.202Z,10.47
2023-01-19T22:44:28.980Z,8.47
2023-01-19T22:49:32.713Z,8.03
2023-01-19T22:54:36.812Z,8.80
2023-01-19T22:59:39.471Z,9.27
2023-01-19T23:04:43.783Z,8.97
2023-01-19T23:09:47.791Z,8.80
2023-01-19T23:14:50.446Z,8.03
2023-01-19T23:19:55.566Z,8.60
2023-01-19T23:24:59.589Z,8.87
2023-01-19T23:30:02.413Z,9.03
2023-01-19T23:35:05.328Z,8.13
2023-01-19T23:40:10.899Z,8.17
2023-01-19T23:45:14.125Z,9.10
2023-01-19T23:50:17.221Z,8.83
2023-01-19T23:55:21.188Z,8.30
